createdAt,value
2019-03-27T00:00:09.420Z,4.13
2019-03-27T00:02:37.901Z,4.73
2019-03-27T00:05:07.481Z,4.85
2019-03-27T00:07:35.945Z,5.20
2019-03-27T00:10:07.389Z,5.07
2019-03-27T00:12:36.751Z,5.05
2019-03-27T00:15:13.491Z,5.25
2019-03-27T00:17:39.172Z,6.37
2019-03-27T00:20:09.779Z,6.65
2019-03-27T00:22:38.336Z,6.40
2019-03-27T00:25:09.246Z,6.80
2019-03-27T00:27:37.786Z,6.70
2019-03-27T00:30:10.358Z,6.30
2019-03-27T00:32:38.822Z,6.58
2019-03-27T00:35:07.841Z,7.13
2019-03-27T00:37:36.308Z,6.17
2019-03-27T00:40:06.404Z,6.22
2019-03-27T00:42:35.447Z,6.15
2019-03-27T00:45:06.509Z,6.10
2019-03-27T00:47:34.971Z,5.80
2019-03-27T00:50:05.770Z,5.97
2019-03-27T00:52:34.812Z,5.70
2019-03-27T00:55:04.220Z,5.28
2019-03-27T00:57:33.272Z,5.25
2019-03-27T01:00:02.334Z,4.60
2019-03-27T01:02:30.794Z,5.17
2019-03-27T01:04:59.286Z,4.80
2019-03-27T01:07:27.742Z,5.00
2019-03-27T01:09:56.212Z,5.00
2019-03-27T01:12:24.683Z,5.10
2019-03-27T01:14:53.158Z,5.10
2019-03-27T01:17:22.208Z,5.75
2019-03-27T01:19:51.281Z,5.83
2019-03-27T01:22:20.333Z,5.50
2019-03-27T01:24:48.802Z,6.40
2019-03-27T01:27:17.266Z,6.77
2019-03-27T01:29:45.748Z,6.13
2019-03-27T01:32:14.236Z,6.57
2019-03-27T01:34:42.694Z,6.57
2019-03-27T01:37:11.759Z,6.90
2019-03-27T01:39:40.226Z,6.95
2019-03-27T01:42:09.255Z,7.22
2019-03-27T01:44:38.210Z,7.20
2019-03-27T01:47:06.666Z,6.87
2019-03-27T01:49:35.765Z,6.83
2019-03-27T01:52:04.226Z,7.03
2019-03-27T01:54:33.271Z,7.22
2019-03-27T01:57:02.335Z,7.47
2019-03-27T01:59:31.376Z,7.85
2019-03-27T02:02:00.527Z,8.65
2019-03-27T02:04:29.613Z,8.20
2019-03-27T02:06:58.655Z,8.40
2019-03-27T02:09:27.683Z,7.35
2019-03-27T02:11:56.169Z,8.37
2019-03-27T02:14:25.215Z,8.18
2019-03-27T02:16:53.695Z,7.63
2019-03-27T02:19:22.757Z,7.00
2019-03-27T02:21:51.809Z,7.60
2019-03-27T02:24:20.857Z,7.10
2019-03-27T02:26:49.315Z,6.37
2019-03-27T02:29:17.793Z,6.70
2019-03-27T02:31:46.853Z,6.62
2019-03-27T02:34:15.908Z,6.42
2019-03-27T02:36:44.379Z,6.43
2019-03-27T02:39:12.860Z,7.20
2019-03-27T02:41:41.315Z,6.70
2019-03-27T02:44:10.379Z,5.78
2019-03-27T02:46:38.838Z,6.28
2019-03-27T02:49:07.319Z,6.30
2019-03-27T02:51:35.794Z,6.15
2019-03-27T02:54:04.900Z,5.97
2019-03-27T02:56:33.586Z,5.90
2019-03-27T02:59:02.439Z,5.57
2019-03-27T03:01:31.490Z,5.83
2019-03-27T03:03:59.971Z,5.70
2019-03-27T03:06:28.428Z,5.60
2019-03-27T03:08:57.484Z,4.72
2019-03-27T03:11:25.954Z,5.23
2019-03-27T03:13:54.432Z,4.95
2019-03-27T03:16:22.895Z,4.55
2019-03-27T03:18:51.375Z,4.63
2019-03-27T03:21:19.832Z,5.00
2019-03-27T03:23:48.896Z,4.67
2019-03-27T03:26:17.359Z,4.73
2019-03-27T03:28:46.535Z,4.85
2019-03-27T03:31:15.162Z,4.77
2019-03-27T03:33:43.714Z,5.10
2019-03-27T03:36:12.856Z,4.97
2019-03-27T03:38:41.509Z,4.78
2019-03-27T03:41:10.549Z,4.53
2019-03-27T03:43:39.023Z,4.97
2019-03-27T03:46:08.078Z,4.80
2019-03-27T03:48:36.566Z,4.37
2019-03-27T03:51:06.481Z,4.53
2019-03-27T03:53:36.299Z,3.77
2019-03-27T03:56:05.665Z,4.08
2019-03-27T03:58:36.772Z,4.67
2019-03-27T04:01:06.974Z,4.53
2019-03-27T04:03:36.468Z,4.30
2019-03-27T04:06:05.066Z,4.03
2019-03-27T04:08:33.560Z,4.20
2019-03-27T04:11:02.151Z,4.20
2019-03-27T04:13:31.167Z,4.03
2019-03-27T04:16:00.376Z,4.67
2019-03-27T04:18:28.851Z,4.67
2019-03-27T04:20:57.320Z,4.67
2019-03-27T04:23:25.802Z,4.83
2019-03-27T04:26:08.778Z,5.10
2019-03-27T04:28:25.487Z,4.87
2019-03-27T04:30:54.594Z,5.03
2019-03-27T04:33:23.136Z,4.83
2019-03-27T04:35:51.624Z,5.03
2019-03-27T04:38:20.665Z,5.40
2019-03-27T04:40:49.720Z,5.08
2019-03-27T04:43:18.200Z,5.12
2019-03-27T04:45:47.268Z,5.12
2019-03-27T04:48:16.312Z,5.20
2019-03-27T04:50:45.373Z,5.35
2019-03-27T04:53:13.847Z,4.90
2019-03-27T04:55:42.911Z,5.03
2019-03-27T04:58:11.370Z,5.60
2019-03-27T05:00:40.436Z,5.58
2019-03-27T05:03:09.483Z,5.25
2019-03-27T05:05:37.945Z,5.70
2019-03-27T05:08:06.986Z,5.35
2019-03-27T05:10:35.456Z,5.60
2019-03-27T05:13:04.571Z,6.50
2019-03-27T05:15:33.624Z,5.92
2019-03-27T05:18:02.654Z,5.45
2019-03-27T05:20:31.227Z,6.07
2019-03-27T05:23:00.320Z,5.90
2019-03-27T05:25:29.373Z,6.10
2019-03-27T05:27:58.421Z,6.70
2019-03-27T05:30:29.112Z,6.67
2019-03-27T05:32:58.447Z,6.70
2019-03-27T05:35:27.710Z,7.50
2019-03-27T05:37:57.013Z,8.00
2019-03-27T05:40:25.476Z,8.23
2019-03-27T05:43:00.603Z,8.23
2019-03-27T05:45:25.393Z,9.33
2019-03-27T05:47:59.326Z,8.60
2019-03-27T05:50:24.639Z,9.23
2019-03-27T05:52:53.929Z,9.08
2019-03-27T05:55:22.415Z,9.17
2019-03-27T05:57:51.477Z,9.60
2019-03-27T06:00:20.546Z,10.03
2019-03-27T06:02:49.615Z,9.78
2019-03-27T06:05:18.754Z,9.20
2019-03-27T06:07:47.875Z,8.93
2019-03-27T06:10:16.925Z,9.50
2019-03-27T06:12:45.405Z,8.97
2019-03-27T06:15:14.615Z,8.43
2019-03-27T06:17:43.681Z,9.68
2019-03-27T06:20:13.094Z,8.50
2019-03-27T06:22:42.169Z,10.40
2019-03-27T06:25:11.211Z,9.63
2019-03-27T06:27:40.275Z,8.93
2019-03-27T06:30:09.749Z,7.87
2019-03-27T06:32:38.822Z,8.38
2019-03-27T06:35:08.031Z,9.23
2019-03-27T06:37:37.168Z,8.70
2019-03-27T06:40:07.278Z,8.90
2019-03-27T06:42:36.324Z,8.88
2019-03-27T06:45:06.614Z,9.78
2019-03-27T06:47:35.711Z,9.28
2019-03-27T06:50:06.642Z,10.20
2019-03-27T06:52:35.774Z,8.80
2019-03-27T06:55:07.056Z,9.15
2019-03-27T06:57:36.122Z,8.53
2019-03-27T07:00:08.270Z,8.78
2019-03-27T07:02:37.323Z,9.20
2019-03-27T07:05:07.128Z,8.50
2019-03-27T07:07:36.176Z,8.33
2019-03-27T07:10:08.635Z,7.42
2019-03-27T07:12:37.699Z,8.65
2019-03-27T07:15:07.494Z,7.97
2019-03-27T07:17:36.635Z,7.75
2019-03-27T07:20:07.283Z,8.85
2019-03-27T07:22:36.347Z,8.35
2019-03-27T07:25:07.255Z,7.67
2019-03-27T07:27:36.354Z,9.28
2019-03-27T07:30:06.947Z,8.33
2019-03-27T07:32:36.007Z,8.48
2019-03-27T07:35:05.823Z,8.83
2019-03-27T07:37:34.889Z,8.90
2019-03-27T07:40:06.183Z,8.75
2019-03-27T07:42:35.219Z,8.90
2019-03-27T07:45:07.069Z,8.30
2019-03-27T07:47:36.405Z,8.20
2019-03-27T07:50:06.999Z,8.68
2019-03-27T07:52:36.062Z,8.48
2019-03-27T07:55:18.777Z,8.13
2019-03-27T07:57:36.646Z,8.83
2019-03-27T08:00:08.817Z,9.68
2019-03-27T08:02:37.879Z,8.93
2019-03-27T08:05:07.059Z,9.23
2019-03-27T08:07:36.115Z,8.68
2019-03-27T08:10:06.893Z,8.63
2019-03-27T08:12:36.007Z,8.78
2019-03-27T08:15:06.945Z,8.58
2019-03-27T08:17:36.455Z,8.10
2019-03-27T08:20:07.235Z,8.20
2019-03-27T08:22:36.293Z,8.90
2019-03-27T08:25:07.542Z,8.65
2019-03-27T08:27:36.606Z,9.53
2019-03-27T08:30:11.731Z,9.08
2019-03-27T08:32:40.860Z,9.08
2019-03-27T08:35:10.840Z,9.05
2019-03-27T08:37:47.374Z,8.98
2019-03-27T08:40:16.756Z,8.93
2019-03-27T08:42:45.816Z,9.28
2019-03-27T08:45:15.012Z,9.15
2019-03-27T08:47:44.262Z,8.75
2019-03-27T08:50:13.651Z,8.93
2019-03-27T08:52:42.784Z,9.05
2019-03-27T08:55:13.779Z,9.23
2019-03-27T08:57:43.168Z,8.93
2019-03-27T09:00:14.626Z,9.40
2019-03-27T09:02:43.764Z,9.40
2019-03-27T09:05:13.166Z,9.15
2019-03-27T09:07:42.237Z,9.93
2019-03-27T09:10:12.121Z,9.78
2019-03-27T09:12:41.254Z,9.08
2019-03-27T09:15:11.739Z,8.68
2019-03-27T09:17:40.811Z,8.20
2019-03-27T09:20:10.305Z,8.85
2019-03-27T09:22:39.364Z,8.23
2019-03-27T09:25:08.867Z,9.28
2019-03-27T09:27:37.991Z,9.35
2019-03-27T09:30:10.145Z,8.70
2019-03-27T09:32:39.218Z,9.03
2019-03-27T09:35:08.553Z,8.95
2019-03-27T09:37:37.629Z,10.13
2019-03-27T09:40:07.721Z,9.05
2019-03-27T09:42:36.950Z,9.10
2019-03-27T09:45:08.197Z,8.55
2019-03-27T09:47:37.537Z,8.33
2019-03-27T09:50:07.745Z,8.00
2019-03-27T09:52:36.815Z,8.55
2019-03-27T09:55:06.127Z,9.20
2019-03-27T09:57:35.181Z,8.00
2019-03-27T10:00:07.549Z,8.25
2019-03-27T10:02:36.609Z,7.78
2019-03-27T10:05:09.566Z,7.40
2019-03-27T10:07:38.631Z,7.62
2019-03-27T10:10:08.032Z,7.70
2019-03-27T10:12:37.105Z,8.10
2019-03-27T10:15:09.497Z,7.90
2019-03-27T10:17:38.560Z,8.28
2019-03-27T10:20:07.961Z,7.35
2019-03-27T10:22:37.031Z,7.78
2019-03-27T10:25:07.936Z,7.37
2019-03-27T10:27:37.058Z,7.10
2019-03-27T10:30:07.373Z,6.90
2019-03-27T10:32:36.558Z,7.00
2019-03-27T10:35:06.457Z,6.30
2019-03-27T10:37:35.506Z,7.20
2019-03-27T10:40:06.868Z,7.35
2019-03-27T10:42:36.122Z,6.80
2019-03-27T10:45:07.089Z,6.83
2019-03-27T10:47:36.168Z,5.50
2019-03-27T10:50:17.355Z,5.20
2019-03-27T10:52:39.452Z,5.40
2019-03-27T10:55:08.756Z,5.83
2019-03-27T10:57:37.888Z,6.28
2019-03-27T11:00:10.628Z,6.45
2019-03-27T11:02:39.758Z,7.30
2019-03-27T11:05:09.647Z,6.83
2019-03-27T11:07:38.817Z,6.83
2019-03-27T11:10:09.400Z,7.28
2019-03-27T11:12:38.491Z,7.30
2019-03-27T11:15:08.541Z,6.47
2019-03-27T11:17:37.686Z,6.45
2019-03-27T11:20:08.278Z,6.75
2019-03-27T11:22:37.343Z,6.17
2019-03-27T11:25:07.125Z,6.03
2019-03-27T11:27:36.177Z,6.03
2019-03-27T11:30:09.053Z,6.20
2019-03-27T11:32:38.106Z,5.55
2019-03-27T11:35:07.597Z,5.87
2019-03-27T11:37:36.662Z,5.97
2019-03-27T11:40:06.453Z,5.60
2019-03-27T11:42:35.521Z,5.72
2019-03-27T11:45:07.033Z,5.92
2019-03-27T11:47:36.162Z,6.22
2019-03-27T11:50:10.145Z,5.87
2019-03-27T11:52:39.197Z,5.85
2019-03-27T11:55:08.699Z,6.03
2019-03-27T11:57:37.836Z,5.80
2019-03-27T12:00:10.035Z,5.80
2019-03-27T12:02:39.112Z,5.33
2019-03-27T12:05:08.813Z,5.78
2019-03-27T12:07:37.885Z,5.95
2019-03-27T12:10:08.066Z,5.42
2019-03-27T12:12:37.137Z,5.67
2019-03-27T12:15:08.317Z,5.87
2019-03-27T12:17:37.403Z,4.85
2019-03-27T12:20:07.604Z,4.83
2019-03-27T12:22:36.640Z,4.78
2019-03-27T12:25:06.826Z,5.50
2019-03-27T12:27:35.869Z,6.05
2019-03-27T12:30:07.379Z,6.30
2019-03-27T12:32:36.426Z,5.67
2019-03-27T12:35:06.531Z,5.58
2019-03-27T12:37:35.563Z,5.10
2019-03-27T12:40:11.360Z,5.35
2019-03-27T12:42:37.244Z,5.70
2019-03-27T12:45:07.358Z,4.97
2019-03-27T12:47:36.419Z,5.40
2019-03-27T12:50:07.475Z,5.72
2019-03-27T12:52:36.532Z,5.45
2019-03-27T12:55:06.421Z,5.47
2019-03-27T12:57:35.465Z,5.35
2019-03-27T13:00:07.375Z,5.40
2019-03-27T13:02:36.422Z,5.90
2019-03-27T13:05:07.133Z,5.80
2019-03-27T13:07:49.124Z,5.67
2019-03-27T13:10:07.299Z,5.85
2019-03-27T13:12:36.379Z,5.95
2019-03-27T13:15:08.911Z,5.40
2019-03-27T13:17:38.013Z,5.50
2019-03-27T13:20:07.895Z,5.12
2019-03-27T13:22:38.365Z,6.67
2019-03-27T13:25:08.718Z,5.83
2019-03-27T13:27:37.933Z,5.67
2019-03-27T13:30:08.812Z,5.55
2019-03-27T13:32:37.925Z,5.50
2019-03-27T13:35:07.925Z,6.28
2019-03-27T13:37:37.002Z,5.55
2019-03-27T13:40:10.615Z,5.60
2019-03-27T13:42:39.769Z,5.42
2019-03-27T13:45:09.344Z,5.60
2019-03-27T13:47:38.395Z,5.40
2019-03-27T13:50:12.898Z,5.47
2019-03-27T13:52:41.372Z,5.65
2019-03-27T13:55:10.656Z,5.65
2019-03-27T13:57:39.701Z,5.53
2019-03-27T14:00:11.361Z,5.80
2019-03-27T14:02:40.423Z,5.28
2019-03-27T14:05:09.683Z,5.62
2019-03-27T14:07:38.733Z,5.53
2019-03-27T14:10:08.608Z,5.72
2019-03-27T14:12:37.766Z,5.78
2019-03-27T14:15:08.556Z,5.42
2019-03-27T14:17:37.859Z,6.40
2019-03-27T14:20:08.446Z,5.97
2019-03-27T14:22:37.546Z,5.70
2019-03-27T14:25:08.237Z,6.70
2019-03-27T14:27:37.289Z,5.70
2019-03-27T14:30:09.128Z,5.42
2019-03-27T14:32:38.326Z,5.12
2019-03-27T14:35:07.902Z,5.28
2019-03-27T14:37:36.950Z,5.08
2019-03-27T14:40:07.627Z,5.75
2019-03-27T14:42:36.740Z,5.58
2019-03-27T14:45:08.449Z,5.03
2019-03-27T14:47:37.744Z,5.42
2019-03-27T14:50:08.218Z,5.35
2019-03-27T14:52:37.280Z,5.80
2019-03-27T14:55:07.552Z,5.25
2019-03-27T14:57:37.588Z,5.17
2019-03-27T15:00:09.606Z,5.05
2019-03-27T15:02:39.307Z,4.87
2019-03-27T15:05:09.389Z,4.62
2019-03-27T15:07:38.445Z,4.50
2019-03-27T15:10:09.010Z,4.28
2019-03-27T15:12:38.058Z,4.53
2019-03-27T15:15:10.240Z,4.35
2019-03-27T15:17:39.343Z,4.30
2019-03-27T15:20:09.222Z,4.17
2019-03-27T15:22:38.383Z,4.60
2019-03-27T15:25:08.365Z,4.45
2019-03-27T15:27:37.415Z,4.35
2019-03-27T15:30:08.775Z,4.33
2019-03-27T15:32:37.955Z,5.08
2019-03-27T15:35:08.051Z,5.15
2019-03-27T15:37:37.134Z,4.45
2019-03-27T15:40:07.123Z,4.60
2019-03-27T15:42:36.289Z,4.70
2019-03-27T15:45:10.027Z,4.35
2019-03-27T15:47:39.135Z,4.45
2019-03-27T15:50:08.546Z,4.87
2019-03-27T15:52:37.573Z,4.47
2019-03-27T15:55:06.807Z,4.70
2019-03-27T15:57:35.832Z,5.00
2019-03-27T16:00:06.455Z,4.45
2019-03-27T16:02:35.465Z,4.87
2019-03-27T16:05:08.703Z,4.80
2019-03-27T16:07:37.760Z,4.35
2019-03-27T16:10:07.106Z,4.37
2019-03-27T16:12:36.598Z,4.50
2019-03-27T16:15:07.482Z,4.55
2019-03-27T16:17:36.657Z,4.37
2019-03-27T16:20:07.270Z,4.08
2019-03-27T16:22:49.867Z,4.50
2019-03-27T16:25:08.248Z,4.30
2019-03-27T16:27:37.308Z,4.50
2019-03-27T16:30:08.323Z,4.72
2019-03-27T16:32:37.426Z,4.70
2019-03-27T16:35:08.211Z,4.55
2019-03-27T16:37:37.266Z,5.70
2019-03-27T16:40:07.255Z,4.50
2019-03-27T16:42:36.281Z,4.37
2019-03-27T16:45:10.104Z,5.08
2019-03-27T16:47:39.214Z,4.37
2019-03-27T16:50:09.429Z,4.37
2019-03-27T16:52:38.458Z,4.75
2019-03-27T16:55:09.254Z,4.70
2019-03-27T16:57:38.284Z,4.55
2019-03-27T17:00:08.183Z,4.53
2019-03-27T17:02:37.274Z,4.55
2019-03-27T17:05:07.296Z,4.78
2019-03-27T17:07:36.401Z,5.08
2019-03-27T17:10:09.368Z,5.90
2019-03-27T17:12:38.424Z,5.70
2019-03-27T17:15:07.642Z,5.85
2019-03-27T17:17:36.716Z,6.05
2019-03-27T17:20:08.865Z,5.95
2019-03-27T17:22:37.926Z,5.87
2019-03-27T17:25:08.582Z,6.10
2019-03-27T17:27:37.793Z,6.05
2019-03-27T17:30:09.092Z,6.40
2019-03-27T17:32:38.163Z,6.00
2019-03-27T17:35:07.477Z,6.10
2019-03-27T17:37:40.261Z,5.87
2019-03-27T17:40:09.764Z,5.92
2019-03-27T17:42:38.841Z,6.42
2019-03-27T17:45:08.397Z,5.83
2019-03-27T17:47:37.944Z,6.85
2019-03-27T17:50:07.931Z,5.97
2019-03-27T17:52:38.384Z,6.08
2019-03-27T17:55:09.893Z,6.83
2019-03-27T17:57:38.974Z,6.87
2019-03-27T18:00:15.381Z,6.80
2019-03-27T18:02:50.549Z,6.03
2019-03-27T18:05:19.786Z,6.20
2019-03-27T18:07:48.860Z,10.05
2019-03-27T18:10:17.984Z,7.33
2019-03-27T18:12:47.073Z,6.83
2019-03-27T18:15:16.134Z,7.05
2019-03-27T18:17:45.450Z,8.15
2019-03-27T18:20:14.684Z,6.35
2019-03-27T18:22:43.826Z,7.05
2019-03-27T18:25:12.956Z,6.87
2019-03-27T18:27:42.086Z,6.85
2019-03-27T18:30:11.510Z,7.80
2019-03-27T18:32:40.598Z,12.40
2019-03-27T18:35:09.885Z,8.18
2019-03-27T18:37:38.955Z,6.58
2019-03-27T18:40:08.361Z,6.05
2019-03-27T18:42:37.474Z,6.67
2019-03-27T18:45:10.839Z,5.78
2019-03-27T18:47:39.898Z,6.03
2019-03-27T18:50:09.740Z,6.15
2019-03-27T18:52:38.838Z,6.17
2019-03-27T18:55:08.604Z,5.80
2019-03-27T18:57:37.737Z,6.85
2019-03-27T19:00:07.979Z,5.92
2019-03-27T19:02:37.114Z,6.35
2019-03-27T19:05:07.693Z,5.75
2019-03-27T19:07:36.754Z,5.75
2019-03-27T19:10:06.661Z,7.90
2019-03-27T19:12:35.751Z,6.12
2019-03-27T19:15:08.183Z,5.60
2019-03-27T19:17:37.273Z,5.90
2019-03-27T19:20:09.488Z,6.50
2019-03-27T19:22:38.561Z,6.28
2019-03-27T19:25:08.143Z,6.90
2019-03-27T19:27:37.193Z,6.83
2019-03-27T19:30:07.980Z,7.37
2019-03-27T19:32:37.208Z,6.55
2019-03-27T19:35:06.549Z,5.87
2019-03-27T19:37:35.597Z,6.17
2019-03-27T19:40:05.793Z,7.17
2019-03-27T19:42:34.936Z,7.58
2019-03-27T19:45:06.013Z,5.90
2019-03-27T19:47:35.226Z,5.97
2019-03-27T19:50:08.709Z,5.85
2019-03-27T19:52:37.769Z,6.08
2019-03-27T19:55:07.151Z,5.55
2019-03-27T19:57:36.177Z,5.03
2019-03-27T20:00:09.105Z,5.65
2019-03-27T20:02:38.317Z,5.17
2019-03-27T20:05:08.032Z,5.60
2019-03-27T20:07:37.323Z,5.30
2019-03-27T20:10:08.636Z,5.55
2019-03-27T20:12:37.736Z,5.22
2019-03-27T20:15:12.449Z,5.72
2019-03-27T20:17:39.095Z,6.30
2019-03-27T20:20:10.359Z,6.00
2019-03-27T20:22:39.416Z,5.65
2019-03-27T20:25:09.028Z,6.10
2019-03-27T20:27:38.154Z,6.08
2019-03-27T20:30:13.022Z,5.40
2019-03-27T20:32:42.430Z,6.00
2019-03-27T20:35:11.614Z,5.60
2019-03-27T20:37:40.663Z,6.10
2019-03-27T20:40:10.578Z,5.53
2019-03-27T20:42:39.629Z,6.00
2019-03-27T20:45:09.128Z,5.55
2019-03-27T20:47:38.177Z,5.35
2019-03-27T20:50:07.870Z,5.30
2019-03-27T20:52:36.920Z,5.25
2019-03-27T20:55:06.732Z,6.17
2019-03-27T20:57:35.772Z,5.62
2019-03-27T21:00:06.836Z,5.67
2019-03-27T21:02:35.865Z,5.33
2019-03-27T21:05:06.654Z,5.80
2019-03-27T21:07:35.750Z,5.90
2019-03-27T21:10:07.454Z,5.50
2019-03-27T21:12:36.516Z,5.65
2019-03-27T21:15:06.960Z,6.55
2019-03-27T21:17:36.006Z,5.62
2019-03-27T21:20:06.521Z,5.87
2019-03-27T21:22:35.640Z,5.83
2019-03-27T21:25:09.179Z,5.70
2019-03-27T21:27:36.985Z,6.03
2019-03-27T21:30:08.762Z,6.30
2019-03-27T21:32:37.799Z,5.70
2019-03-27T21:35:07.621Z,6.35
2019-03-27T21:37:36.677Z,6.00
2019-03-27T21:40:07.533Z,6.22
2019-03-27T21:42:36.594Z,5.78
2019-03-27T21:45:09.561Z,6.45
2019-03-27T21:47:38.648Z,6.50
2019-03-27T21:50:09.093Z,6.78
2019-03-27T21:52:38.174Z,6.33
2019-03-27T21:55:21.509Z,5.92
2019-03-27T21:57:38.437Z,6.60
2019-03-27T22:00:08.301Z,6.12
2019-03-27T22:02:37.361Z,6.53
2019-03-27T22:05:07.249Z,6.20
2019-03-27T22:07:36.315Z,6.37
2019-03-27T22:10:07.269Z,6.78
2019-03-27T22:12:38.217Z,6.50
2019-03-27T22:15:08.509Z,6.70
2019-03-27T22:17:37.573Z,6.80
2019-03-27T22:20:07.259Z,6.35
2019-03-27T22:22:36.335Z,6.53
2019-03-27T22:25:07.349Z,6.55
2019-03-27T22:27:36.409Z,6.65
2019-03-27T22:30:07.474Z,6.92
2019-03-27T22:32:36.509Z,6.62
2019-03-27T22:35:07.017Z,6.53
2019-03-27T22:37:36.084Z,6.87
2019-03-27T22:40:06.888Z,6.83
2019-03-27T22:42:35.949Z,7.58
2019-03-27T22:45:06.533Z,7.55
2019-03-27T22:47:35.757Z,7.03
2019-03-27T22:50:08.318Z,7.25
2019-03-27T22:52:37.506Z,7.47
2019-03-27T22:55:08.206Z,7.25
2019-03-27T22:57:37.266Z,8.23
2019-03-27T23:00:10.636Z,8.15
2019-03-27T23:02:39.786Z,7.97
2019-03-27T23:05:08.980Z,8.13
2019-03-27T23:07:38.055Z,7.78
2019-03-27T23:10:07.441Z,7.30
2019-03-27T23:12:36.490Z,8.05
2019-03-27T23:15:09.838Z,7.83
2019-03-27T23:17:38.932Z,7.60
2019-03-27T23:20:09.210Z,8.20
2019-03-27T23:22:38.333Z,8.08
2019-03-27T23:25:07.581Z,7.70
2019-03-27T23:27:36.688Z,7.58
2019-03-27T23:30:07.775Z,8.40
2019-03-27T23:32:36.989Z,7.97
2019-03-27T23:35:08.688Z,8.05
2019-03-27T23:37:37.829Z,8.18
2019-03-27T23:40:07.424Z,8.40
2019-03-27T23:42:36.468Z,8.33
2019-03-27T23:45:07.065Z,8.68
2019-03-27T23:47:36.196Z,8.53
2019-03-27T23:50:09.023Z,9.25
2019-03-27T23:52:38.062Z,8.48
2019-03-27T23:55:07.637Z,8.73
2019-03-27T23:57:37.307Z,9.18
